Time;durP1;ratioP1;P1;durP2;ratioP2;P2;SDS_P1;SDS_P2;PMS_P1;PMS_P2;Temp;Humidity;BMP_temperature;BMP_pressure;BME280_temperature;BME280_humidity;BME280_pressure;Samples;Min_cycle;Max_cycle;Signal;HPM_P1;HPM_P2
2022/01/13 00:00:53;;;;;;;41.60;21.65;;;-3.50;99.90;;;;;;5052058;28;20394;-86
2022/01/13 00:03:21;;;;;;;42.92;21.52;;;-3.30;99.90;;;;;;5069167;28;20494;-86
2022/01/13 00:05:48;;;;;;;43.72;22.63;;;-3.30;99.90;;;;;;5072249;28;20386;-85
2022/01/13 00:08:16;;;;;;;42.97;22.55;;;-3.40;99.90;;;;;;5071897;28;20390;-85
2022/01/13 00:10:44;;;;;;;41.63;21.63;;;-3.30;99.90;;;;;;5052822;28;20452;-87
2022/01/13 00:13:21;;;;;;;39.83;21.77;;;-3.30;99.90;;;;;;5071502;28;20903;-85
2022/01/13 00:18:37;;;;;;;37.78;20.98;;;-3.20;99.90;;;;;;5072817;28;20389;-85
2022/01/13 00:21:17;;;;;;;39.78;21.02;;;-3.20;99.90;;;;;;5071560;28;20398;-84
2022/01/13 00:23:51;;;;;;;44.75;22.75;;;-3.10;99.90;;;;;;5054506;28;20748;-85
2022/01/13 00:26:24;;;;;;;41.65;21.40;;;-3.10;99.90;;;;;;5071175;28;20390;-85
2022/01/13 00:28:55;;;;;;;39.20;20.65;;;-3.20;99.90;;;;;;5071327;28;20495;-85
2022/01/13 00:31:30;;;;;;;35.53;19.55;;;-3.10;99.90;;;;;;5071404;28;20895;-86
2022/01/13 00:34:00;;;;;;;34.55;18.05;;;-3.10;99.90;;;;;;5071542;28;20457;-86
2022/01/13 00:36:30;;;;;;;37.15;19.45;;;-3.00;99.90;;;;;;5071600;28;20386;-86
2022/01/13 00:38:58;;;;;;;35.90;19.10;;;-3.00;99.90;;;;;;5071165;28;20397;-84
2022/01/13 00:41:29;;;;;;;35.40;19.30;;;-2.90;99.90;;;;;;5071279;28;20396;-84
2022/01/13 00:43:58;;;;;;;35.33;18.30;;;-2.90;99.90;;;;;;5070949;28;20386;-86
2022/01/13 00:46:30;;;;;;;35.35;18.92;;;-3.00;99.90;;;;;;5071244;28;20378;-86
2022/01/13 00:48:58;;;;;;;36.13;19.05;;;-3.00;99.90;;;;;;5071176;28;20452;-86
2022/01/13 00:51:25;;;;;;;34.73;17.80;;;-2.90;99.90;;;;;;5054617;28;20761;-85
2022/01/13 00:53:54;;;;;;;35.08;18.65;;;-2.90;99.90;;;;;;5071012;28;20394;-85
2022/01/13 00:56:22;;;;;;;36.88;18.55;;;-2.80;99.90;;;;;;5071260;28;20461;-86
2022/01/13 00:58:49;;;;;;;36.58;19.75;;;-2.80;99.90;;;;;;5071044;28;20386;-86
2022/01/13 01:01:16;;;;;;;33.93;17.73;;;-2.80;99.90;;;;;;5071137;28;20390;-86
2022/01/13 01:03:44;;;;;;;39.40;19.30;;;-2.70;99.90;;;;;;5054548;28;20424;-86
2022/01/13 01:06:12;;;;;;;38.27;19.77;;;-2.70;99.90;;;;;;5071028;28;20527;-85
2022/01/13 01:08:40;;;;;;;38.20;19.45;;;-2.70;99.90;;;;;;5071075;28;20402;-86
2022/01/13 01:11:07;;;;;;;36.60;18.85;;;-2.70;99.90;;;;;;5054175;28;20780;-86
2022/01/13 01:13:37;;;;;;;35.50;18.75;;;-2.70;99.90;;;;;;5070786;28;20401;-85
2022/01/13 01:16:09;;;;;;;39.22;19.92;;;-2.70;99.90;;;;;;5070664;28;20435;-85
2022/01/13 01:18:52;;;;;;;35.65;18.42;;;-2.60;99.90;;;;;;5070927;28;20749;-85
2022/01/13 01:31:54;;;;;;;42.20;21.92;;;-2.50;99.90;;;;;;5050564;28;20399;-87
2022/01/13 01:37:01;;;;;;;38.78;20.40;;;-2.50;99.90;;;;;;5050469;28;20450;-87
2022/01/13 01:39:29;;;;;;;41.03;20.48;;;-2.50;99.90;;;;;;5050551;28;20399;-86
2022/01/13 01:41:56;;;;;;;45.05;21.10;;;-2.30;99.90;;;;;;5056694;28;20963;-85
2022/01/13 01:44:31;;;;;;;41.57;21.40;;;-2.40;99.90;;;;;;5071654;28;20408;-86
2022/01/13 01:47:00;;;;;;;39.00;20.80;;;-2.40;99.90;;;;;;5070641;28;20469;-86
2022/01/13 01:49:30;;;;;;;41.78;19.42;;;-2.30;99.90;;;;;;5070504;28;21014;-85
2022/01/13 01:52:00;;;;;;;40.23;21.00;;;-2.30;99.90;;;;;;5071505;28;20488;-86
2022/01/13 01:54:28;;;;;;;39.83;19.13;;;-2.40;99.90;;;;;;5070307;28;20405;-86
2022/01/13 01:56:57;;;;;;;51.67;23.77;;;-2.40;99.90;;;;;;5070365;28;20884;-86
2022/01/13 01:59:29;;;;;;;40.85;19.38;;;-2.30;99.90;;;;;;5070370;28;20946;-85
2022/01/13 02:01:57;;;;;;;46.90;21.48;;;-2.20;99.90;;;;;;5071598;28;20416;-86
2022/01/13 02:04:27;;;;;;;44.85;21.08;;;-2.10;99.90;;;;;;5070385;28;20418;-86
2022/01/13 02:06:56;;;;;;;39.78;19.27;;;-2.20;99.90;;;;;;5070356;28;20393;-85
2022/01/13 02:09:24;;;;;;;52.60;20.33;;;-2.10;99.90;;;;;;5070153;28;20440;-86
2022/01/13 02:11:55;;;;;;;42.30;19.40;;;-2.00;99.90;;;;;;5070302;28;20467;-86
2022/01/13 02:17:09;;;;;;;40.25;18.85;;;-1.90;99.90;;;;;;5071297;28;20386;-86
2022/01/13 02:19:40;;;;;;;43.90;19.45;;;-2.00;99.90;;;;;;5070667;28;20378;-86
2022/01/13 02:22:08;;;;;;;38.80;18.77;;;-2.00;99.90;;;;;;5070135;28;20422;-85
2022/01/13 02:24:36;;;;;;;38.22;17.88;;;-1.90;99.90;;;;;;5069460;28;20399;-85
2022/01/13 02:27:06;;;;;;;38.13;18.00;;;-1.90;99.90;;;;;;5069698;28;20405;-85
2022/01/13 02:29:35;;;;;;;36.27;16.63;;;-1.70;99.90;;;;;;5069802;28;20429;-85
2022/01/13 02:32:04;;;;;;;37.88;17.08;;;-1.70;99.90;;;;;;5053491;28;20406;-86
2022/01/13 02:34:32;;;;;;;40.65;17.70;;;-1.70;99.90;;;;;;5070191;28;20551;-85
2022/01/13 02:36:59;;;;;;;37.15;17.50;;;-1.50;99.90;;;;;;5086695;28;20389;-85
2022/01/13 02:39:28;;;;;;;39.13;17.33;;;-1.50;99.90;;;;;;5069767;28;20390;-85
2022/01/13 02:41:57;;;;;;;38.15;16.67;;;-1.50;99.90;;;;;;5071105;28;20416;-86
2022/01/13 02:44:25;;;;;;;43.53;17.98;;;-1.40;99.90;;;;;;5069628;28;20409;-86
2022/01/13 02:47:20;;;;;;;34.70;17.10;;;-1.40;99.90;;;;;;5069865;28;20390;-86
2022/01/13 02:50:07;;;;;;;33.72;14.43;;;-1.50;99.90;;;;;;5076258;28;20486;-85
2022/01/13 02:52:35;;;;;;;32.58;14.27;;;-1.40;99.90;;;;;;5073123;28;20398;-85
2022/01/13 02:55:04;;;;;;;34.80;15.55;;;-1.40;99.90;;;;;;5073334;28;20417;-86
2022/01/13 02:57:32;;;;;;;33.13;14.73;;;-1.30;99.90;;;;;;5073384;28;20390;-85
2022/01/13 03:00:00;;;;;;;38.17;16.23;;;-1.30;99.90;;;;;;5073268;28;20405;-85
2022/01/13 03:02:31;;;;;;;33.22;14.50;;;-1.20;99.90;;;;;;5072996;28;20489;-85
2022/01/13 03:04:59;;;;;;;34.53;14.85;;;-1.30;99.90;;;;;;5073235;28;20398;-86
2022/01/13 03:07:30;;;;;;;30.40;12.77;;;-1.30;99.90;;;;;;5072996;28;20410;-85
2022/01/13 03:09:58;;;;;;;25.50;12.50;;;-1.20;99.90;;;;;;5072952;28;21041;-85
2022/01/13 03:12:27;;;;;;;28.95;12.40;;;-1.20;99.90;;;;;;5072686;28;20394;-85
2022/01/13 03:14:57;;;;;;;29.42;13.07;;;-1.20;99.90;;;;;;5056516;28;20402;-84
2022/01/13 03:17:24;;;;;;;26.48;11.55;;;-1.00;99.90;;;;;;5089402;28;20398;-85
2022/01/13 03:19:52;;;;;;;29.90;12.23;;;-1.00;99.90;;;;;;5073017;28;20737;-85
2022/01/13 03:22:19;;;;;;;24.70;11.17;;;-1.00;99.90;;;;;;5074141;28;20386;-85
2022/01/13 03:24:47;;;;;;;26.75;11.68;;;-0.90;99.90;;;;;;5072629;28;20405;-86
2022/01/13 03:27:20;;;;;;;24.73;11.03;;;-1.00;99.90;;;;;;5072797;28;20397;-85
2022/01/13 03:29:48;;;;;;;23.23;10.40;;;-1.00;99.90;;;;;;5072669;28;20402;-85
2022/01/13 03:32:17;;;;;;;27.75;11.07;;;-1.00;99.90;;;;;;5072644;28;20447;-86
2022/01/13 03:34:45;;;;;;;22.70;10.32;;;-0.90;99.90;;;;;;5072634;28;20798;-84
2022/01/13 03:37:13;;;;;;;28.83;11.50;;;-0.90;99.90;;;;;;5072391;28;20379;-85
2022/01/13 03:39:40;;;;;;;25.67;10.93;;;-0.90;99.90;;;;;;5056143;28;20390;-86
2022/01/13 03:42:08;;;;;;;22.35;9.57;;;-0.80;99.90;;;;;;5072636;28;20872;-85
2022/01/13 03:44:36;;;;;;;21.10;9.90;;;-0.80;99.90;;;;;;5072323;28;20392;-85
2022/01/13 03:47:04;;;;;;;24.23;10.30;;;-0.70;99.90;;;;;;5066932;28;20824;-85
2022/01/13 03:49:32;;;;;;;19.63;8.93;;;-0.80;99.90;;;;;;5052493;28;20384;-85
2022/01/13 03:52:03;;;;;;;19.58;8.95;;;-0.70;99.90;;;;;;5035603;28;20404;-84
2022/01/13 03:54:34;;;;;;;22.42;8.98;;;-0.80;99.90;;;;;;5052110;28;20388;-85
2022/01/13 03:57:40;;;;;;;20.20;8.85;;;-0.70;99.90;;;;;;5052448;28;20428;-86
2022/01/13 04:00:33;;;;;;;19.70;9.13;;;-0.60;99.90;;;;;;5071985;28;20421;-86
2022/01/13 04:03:01;;;;;;;23.35;9.80;;;-0.60;99.90;;;;;;5051888;28;20483;-84
2022/01/13 04:05:29;;;;;;;19.42;7.63;;;-0.70;99.90;;;;;;5035296;28;20450;-85
2022/01/13 04:07:56;;;;;;;18.95;8.52;;;-0.70;99.90;;;;;;5035313;28;20483;-84
2022/01/13 04:10:44;;;;;;;17.33;7.63;;;-0.60;99.90;;;;;;5052751;28;20384;-84
2022/01/13 04:13:23;;;;;;;18.38;7.90;;;-0.60;99.90;;;;;;5051562;28;20483;-85
2022/01/13 04:15:50;;;;;;;21.00;8.80;;;-0.50;99.90;;;;;;5051648;28;20392;-83
2022/01/13 04:18:18;;;;;;;17.67;7.43;;;-0.50;99.90;;;;;;5051623;28;20392;-85
2022/01/13 04:20:45;;;;;;;17.42;7.95;;;-0.50;99.90;;;;;;5052771;28;20474;-85
2022/01/13 04:23:13;;;;;;;13.65;6.43;;;-0.50;99.90;;;;;;5051288;28;20808;-84
2022/01/13 04:25:42;;;;;;;20.52;8.13;;;-0.40;99.90;;;;;;5052688;28;20457;-85
2022/01/13 04:28:12;;;;;;;16.48;7.25;;;-0.40;99.90;;;;;;5034843;28;20834;-85
2022/01/13 04:30:50;;;;;;;14.20;6.78;;;-0.40;99.90;;;;;;5051590;28;20774;-85
2022/01/13 04:33:18;;;;;;;12.25;5.80;;;-0.40;99.90;;;;;;5051139;28;20399;-84
2022/01/13 04:35:46;;;;;;;14.23;6.78;;;-0.40;99.90;;;;;;5052512;28;20797;-86
2022/01/13 04:38:13;;;;;;;10.93;5.47;;;-0.40;99.90;;;;;;5051302;28;20723;-86
2022/01/13 04:40:45;;;;;;;12.85;5.22;;;-0.40;99.90;;;;;;5034775;28;20442;-84
2022/01/13 04:43:13;;;;;;;11.93;5.00;;;-0.40;99.90;;;;;;5034804;28;20414;-85
2022/01/13 04:45:41;;;;;;;12.30;5.13;;;-0.30;99.90;;;;;;5051205;28;20449;-85
2022/01/13 04:48:09;;;;;;;10.23;4.75;;;-0.30;99.90;;;;;;5051031;28;20395;-85
2022/01/13 04:50:36;;;;;;;10.30;4.72;;;-0.30;99.90;;;;;;5036032;28;20398;-84
2022/01/13 04:53:04;;;;;;;9.10;4.80;;;-0.30;99.90;;;;;;5037528;28;20404;-84
2022/01/13 04:55:34;;;;;;;9.40;4.68;;;-0.30;99.90;;;;;;5071642;28;20400;-84
2022/01/13 04:58:02;;;;;;;9.05;4.60;;;-0.30;99.90;;;;;;5068364;28;20413;-85
2022/01/13 05:00:31;;;;;;;8.07;4.03;;;-0.30;99.90;;;;;;5071034;28;20930;-85
2022/01/13 05:02:59;;;;;;;8.32;3.92;;;-0.20;99.90;;;;;;5070761;28;20429;-85
2022/01/13 05:05:27;;;;;;;8.90;4.20;;;-0.30;99.90;;;;;;5067298;28;20388;-86
2022/01/13 05:07:54;;;;;;;6.30;3.53;;;-0.20;99.90;;;;;;5050485;28;20469;-84
2022/01/13 05:10:22;;;;;;;9.30;4.28;;;-0.30;99.90;;;;;;5066872;28;20402;-83
2022/01/13 05:12:56;;;;;;;8.67;3.93;;;-0.30;99.90;;;;;;5053955;28;20428;-85
2022/01/13 05:15:28;;;;;;;7.25;3.40;;;-0.20;99.90;;;;;;5054129;28;20574;-85
2022/01/13 05:18:55;;;;;;;6.00;3.20;;;-0.30;99.90;;;;;;5070544;28;20491;-84
2022/01/13 05:21:02;;;;;;;7.15;3.60;;;-0.20;99.90;;;;;;5070063;28;20743;-84
2022/01/13 05:23:30;;;;;;;5.10;3.10;;;-0.20;99.90;;;;;;5070282;28;20892;-85
2022/01/13 05:25:58;;;;;;;5.47;2.53;;;-0.20;99.90;;;;;;5053954;28;20477;-84
2022/01/13 05:28:26;;;;;;;7.53;3.15;;;-0.20;99.90;;;;;;5070456;28;20405;-85
2022/01/13 05:30:53;;;;;;;5.97;3.03;;;-0.20;99.90;;;;;;5070379;28;20496;-84
2022/01/13 05:33:21;;;;;;;5.27;2.50;;;-0.20;99.90;;;;;;5069947;28;20409;-84
2022/01/13 05:35:48;;;;;;;4.97;2.80;;;-0.20;99.90;;;;;;5087080;28;20386;-85
2022/01/13 05:38:16;;;;;;;5.72;2.70;;;-0.20;99.90;;;;;;5070499;28;20714;-85
2022/01/13 05:40:44;;;;;;;4.78;2.03;;;-0.20;99.90;;;;;;5070503;28;20393;-86
2022/01/13 05:43:11;;;;;;;4.78;2.30;;;-0.20;99.90;;;;;;5070410;28;20398;-85
2022/01/13 05:45:39;;;;;;;3.63;1.90;;;-0.20;99.90;;;;;;5063825;28;20427;-85
2022/01/13 05:48:07;;;;;;;3.67;1.80;;;-0.20;99.90;;;;;;5034126;28;20396;-85
2022/01/13 05:50:35;;;;;;;2.97;1.80;;;-0.10;99.90;;;;;;5051033;28;20788;-84
2022/01/13 05:53:04;;;;;;;4.20;2.03;;;-0.10;99.90;;;;;;5070284;28;20476;-84
2022/01/13 05:55:32;;;;;;;2.78;1.50;;;-0.20;99.90;;;;;;5070193;28;20451;-84
2022/01/13 05:58:00;;;;;;;2.88;1.60;;;-0.10;99.90;;;;;;5061552;28;20399;-86
2022/01/13 06:00:27;;;;;;;2.80;1.48;;;-0.10;99.90;;;;;;5050165;28;20388;-85
2022/01/13 06:02:55;;;;;;;2.95;1.50;;;-0.10;99.90;;;;;;5069302;28;20799;-86
2022/01/13 06:05:23;;;;;;;2.80;1.47;;;-0.10;99.90;;;;;;5053661;28;20423;-86
2022/01/13 06:07:51;;;;;;;2.65;1.42;;;-0.10;99.90;;;;;;5069829;28;20397;-86
2022/01/13 06:10:19;;;;;;;2.60;1.50;;;0.00;99.90;;;;;;5033778;28;20410;-87
2022/01/13 06:12:51;;;;;;;2.15;1.30;;;-0.10;99.90;;;;;;5050034;28;20491;-86
2022/01/13 06:15:22;;;;;;;3.25;1.63;;;-0.10;99.90;;;;;;5066149;28;20447;-87
2022/01/13 06:17:52;;;;;;;10.85;2.55;;;-0.10;99.90;;;;;;5058667;28;20953;-86
2022/01/13 06:20:21;;;;;;;4.45;1.40;;;-0.10;99.90;;;;;;5054337;28;20430;-86
2022/01/13 06:22:51;;;;;;;2.33;1.42;;;0.00;99.90;;;;;;5051091;28;20400;-86
2022/01/13 06:25:19;;;;;;;3.97;1.30;;;0.00;99.90;;;;;;5053275;28;20418;-86
2022/01/13 06:27:46;;;;;;;2.00;1.17;;;0.00;99.90;;;;;;5052898;28;20457;-86
2022/01/13 06:30:34;;;;;;;2.17;1.05;;;0.00;99.90;;;;;;5052451;28;20400;-86
2022/01/13 06:33:04;;;;;;;1.60;0.93;;;0.00;99.90;;;;;;5052863;28;20403;-86
2022/01/13 06:35:31;;;;;;;1.85;1.10;;;0.00;99.90;;;;;;5052619;28;20957;-86
2022/01/13 06:37:59;;;;;;;2.03;0.85;;;0.00;99.90;;;;;;5053066;28;20379;-87
2022/01/13 06:40:27;;;;;;;2.03;1.00;;;0.00;99.90;;;;;;5037020;28;20388;-87
2022/01/13 06:42:54;;;;;;;1.70;0.90;;;0.00;99.90;;;;;;5037345;28;20430;-86
2022/01/13 06:45:22;;;;;;;1.98;1.00;;;0.00;99.90;;;;;;5053692;28;20391;-86
2022/01/13 06:47:49;;;;;;;1.25;0.80;;;0.10;99.90;;;;;;5053769;28;20716;-86
2022/01/13 06:50:17;;;;;;;2.10;0.70;;;0.10;99.90;;;;;;5070354;28;20441;-86
2022/01/13 06:52:47;;;;;;;1.52;0.88;;;0.10;99.90;;;;;;5053597;28;20482;-86
2022/01/13 06:55:15;;;;;;;1.83;0.80;;;0.20;99.90;;;;;;5053641;28;20479;-85
2022/01/13 06:57:43;;;;;;;1.73;0.80;;;0.10;99.90;;;;;;5036817;28;20462;-85
2022/01/13 07:00:11;;;;;;;3.27;0.83;;;0.20;99.90;;;;;;5053369;28;20445;-85
2022/01/13 07:02:39;;;;;;;1.30;0.70;;;0.20;99.90;;;;;;5053477;28;20420;-86
2022/01/13 07:05:07;;;;;;;2.25;0.75;;;0.20;99.90;;;;;;5053634;28;20731;-86
2022/01/13 07:07:37;;;;;;;1.95;0.88;;;0.20;99.90;;;;;;5053192;28;20486;-86
2022/01/13 07:10:08;;;;;;;1.40;0.80;;;0.20;99.90;;;;;;5037055;28;20388;-86
2022/01/13 07:12:35;;;;;;;2.08;0.80;;;0.30;99.90;;;;;;5052840;28;20412;-85
2022/01/13 07:15:04;;;;;;;1.48;0.90;;;0.30;99.90;;;;;;5053010;28;20400;-86
2022/01/13 07:17:32;;;;;;;1.90;0.80;;;0.30;99.90;;;;;;5036504;28;20388;-85
2022/01/13 07:20:00;;;;;;;1.60;0.90;;;0.40;99.90;;;;;;5052907;28;20392;-86
2022/01/13 07:22:27;;;;;;;1.63;0.95;;;0.30;99.90;;;;;;5036294;28;20388;-85
2022/01/13 07:24:55;;;;;;;1.50;0.85;;;0.40;99.90;;;;;;5035998;28;20403;-84
2022/01/13 07:27:22;;;;;;;1.10;0.70;;;0.40;99.90;;;;;;5036152;28;20446;-85
2022/01/13 07:29:50;;;;;;;1.60;0.90;;;0.40;99.90;;;;;;5052701;28;20391;-86
2022/01/13 07:32:17;;;;;;;1.90;0.90;;;0.40;99.90;;;;;;5036025;28;20388;-85
2022/01/13 07:34:45;;;;;;;1.93;0.90;;;0.40;99.90;;;;;;5035370;28;20412;-85
2022/01/13 07:37:16;;;;;;;2.70;1.08;;;0.50;99.90;;;;;;5052860;28;20403;-85
2022/01/13 07:39:43;;;;;;;2.90;1.20;;;0.50;99.90;;;;;;5052484;28;20398;-85
2022/01/13 07:42:12;;;;;;;2.00;1.10;;;0.60;99.90;;;;;;5053661;28;20923;-85
2022/01/13 07:44:39;;;;;;;1.98;0.88;;;0.60;99.90;;;;;;5052211;28;20398;-84
2022/01/13 07:47:07;;;;;;;2.47;1.13;;;0.70;99.90;;;;;;5052243;28;20465;-84
2022/01/13 07:49:37;;;;;;;2.67;1.20;;;0.70;99.90;;;;;;5035700;28;20513;-85
2022/01/13 07:52:04;;;;;;;2.05;1.15;;;0.70;99.90;;;;;;5052273;28;20392;-86
2022/01/13 07:54:32;;;;;;;1.77;1.00;;;0.70;99.90;;;;;;5035586;28;20454;-86
2022/01/13 07:57:01;;;;;;;1.70;1.00;;;0.70;99.90;;;;;;5035727;28;20470;-86
2022/01/13 07:59:29;;;;;;;2.90;1.20;;;0.70;99.90;;;;;;5035612;28;20395;-85
2022/01/13 08:01:58;;;;;;;1.65;1.00;;;0.80;99.90;;;;;;5035648;28;20479;-85
2022/01/13 08:04:27;;;;;;;3.38;1.33;;;0.90;99.90;;;;;;5052212;28;20900;-85
2022/01/13 08:06:54;;;;;;;2.92;1.13;;;1.00;99.90;;;;;;5051790;28;20383;-84
2022/01/13 08:09:23;;;;;;;3.13;1.10;;;1.00;99.90;;;;;;5053013;28;20384;-84
2022/01/13 08:11:51;;;;;;;2.47;1.20;;;1.00;99.90;;;;;;5051755;28;20391;-84
2022/01/13 08:14:19;;;;;;;4.43;1.27;;;1.00;99.90;;;;;;5051586;28;20487;-85
2022/01/13 08:16:49;;;;;;;4.30;1.40;;;1.00;99.90;;;;;;5034968;28;20419;-85
2022/01/13 08:22:02;;;;;;;2.17;1.20;;;1.00;99.90;;;;;;5052823;28;20388;-85
2022/01/13 08:24:30;;;;;;;4.43;1.40;;;1.00;99.90;;;;;;5051319;28;20882;-85
2022/01/13 08:26:58;;;;;;;4.30;1.70;;;1.00;99.90;;;;;;5051336;28;20396;-85
2022/01/13 08:29:26;;;;;;;7.53;1.85;;;1.00;99.90;;;;;;5051354;28;20399;-85
2022/01/13 08:31:54;;;;;;;16.77;2.03;;;1.10;99.90;;;;;;5051199;28;20486;-85
2022/01/13 08:34:21;;;;;;;5.65;2.00;;;1.10;99.90;;;;;;5051172;28;20404;-84
2022/01/13 08:36:49;;;;;;;28.83;2.67;;;1.10;99.90;;;;;;5051130;28;20391;-86
2022/01/13 08:39:17;;;;;;;8.80;1.80;;;1.20;99.90;;;;;;5051182;28;20392;-85
2022/01/13 08:41:45;;;;;;;11.40;1.80;;;1.10;99.90;;;;;;5051219;28;20396;-86
2022/01/13 08:44:12;;;;;;;8.70;2.37;;;1.20;99.90;;;;;;5051254;28;20388;-87
2022/01/13 08:46:40;;;;;;;16.48;2.03;;;1.20;99.90;;;;;;5033868;28;20431;-86
2022/01/13 08:49:09;;;;;;;17.42;2.33;;;1.20;99.90;;;;;;5051241;28;20384;-86
2022/01/13 08:51:37;;;;;;;22.63;2.95;;;1.30;99.90;;;;;;5051131;28;20461;-87
2022/01/13 08:54:05;;;;;;;17.20;2.60;;;1.30;99.90;;;;;;5034509;28;20414;-86
2022/01/13 08:56:32;;;;;;;19.00;2.90;;;1.40;99.90;;;;;;5051119;28;20408;-87
2022/01/13 08:59:00;;;;;;;62.80;4.28;;;1.30;99.90;;;;;;5034529;28;20490;-85
2022/01/13 09:01:29;;;;;;;41.15;3.85;;;1.40;99.90;;;;;;5050726;28;20392;-85
2022/01/13 09:03:58;;;;;;;44.17;4.03;;;1.40;99.90;;;;;;5051101;28;20491;-87
2022/01/13 09:06:26;;;;;;;38.90;3.90;;;1.40;99.90;;;;;;5034476;28;20415;-87
2022/01/13 09:08:53;;;;;;;74.50;5.55;;;1.30;99.90;;;;;;5052090;28;20394;-88
2022/01/13 09:11:21;;;;;;;32.13;2.90;;;1.30;99.90;;;;;;5067475;28;20445;-87
2022/01/13 09:13:56;;;;;;;45.80;4.38;;;1.40;99.90;;;;;;5050595;28;20898;-86
2022/01/13 09:16:26;;;;;;;43.65;3.88;;;1.40;99.90;;;;;;5050908;28;20483;-87
2022/01/13 09:21:23;;;;;;;92.63;6.55;;;1.50;99.90;;;;;;5067331;28;20902;-87
2022/01/13 09:23:50;;;;;;;44.97;4.43;;;1.50;99.90;;;;;;5050411;28;20789;-87
2022/01/13 09:26:18;;;;;;;36.08;3.95;;;1.50;99.90;;;;;;5050851;28;20395;-87
2022/01/13 09:28:46;;;;;;;67.13;4.90;;;1.50;99.90;;;;;;5034023;28;20400;-87
2022/01/13 09:31:13;;;;;;;64.25;5.10;;;1.60;99.90;;;;;;5034265;28;20465;-87
2022/01/13 09:33:41;;;;;;;111.38;7.38;;;1.50;99.90;;;;;;5050237;28;20415;-86
2022/01/13 09:36:09;;;;;;;69.93;5.38;;;1.60;99.90;;;;;;5050607;28;20396;-88
2022/01/13 09:38:37;;;;;;;91.63;6.77;;;1.60;99.90;;;;;;5050404;28;20426;-85
2022/01/13 09:41:04;;;;;;;79.40;6.07;;;1.70;99.90;;;;;;5050303;28;20391;-86
2022/01/13 09:43:32;;;;;;;81.35;6.07;;;1.60;99.90;;;;;;5050362;28;20422;-86
2022/01/13 09:45:59;;;;;;;96.68;7.45;;;1.70;99.90;;;;;;5051476;28;20395;-86
2022/01/13 09:48:28;;;;;;;91.07;6.47;;;1.70;99.90;;;;;;5050284;28;20406;-87
2022/01/13 09:50:56;;;;;;;61.90;6.43;;;1.80;99.90;;;;;;5050477;28;20483;-87
2022/01/13 09:53:24;;;;;;;72.45;7.03;;;1.70;99.90;;;;;;5067096;28;20430;-87
2022/01/13 09:55:51;;;;;;;72.15;5.60;;;1.80;99.90;;;;;;5034050;28;20447;-88
2022/01/13 09:58:19;;;;;;;47.28;5.43;;;1.80;99.90;;;;;;5053919;28;20479;-87
2022/01/13 10:00:47;;;;;;;65.57;6.63;;;1.80;99.90;;;;;;5054515;28;20394;-87
2022/01/13 10:03:19;;;;;;;20.08;5.00;;;1.80;99.90;;;;;;5055486;28;20414;-86
2022/01/13 10:05:49;;;;;;;49.50;6.35;;;1.80;99.90;;;;;;5054320;28;20407;-87
2022/01/13 10:08:21;;;;;;;33.80;5.65;;;1.90;99.90;;;;;;5071086;28;20441;-85
2022/01/13 10:10:49;;;;;;;35.50;5.50;;;2.00;99.90;;;;;;5054254;28;20418;-85
2022/01/13 10:13:40;;;;;;;26.02;5.40;;;2.00;99.90;;;;;;5054123;28;20780;-87
2022/01/13 10:16:23;;;;;;;19.00;5.50;;;2.00;99.90;;;;;;5054245;28;20394;-86
2022/01/13 10:18:52;;;;;;;28.53;6.60;;;2.00;99.90;;;;;;5055615;28;20410;-87
2022/01/13 10:21:20;;;;;;;23.48;5.45;;;2.00;99.90;;;;;;5054005;28;20384;-86
2022/01/13 10:24:12;;;;;;;37.03;6.78;;;2.10;99.90;;;;;;5054903;28;20426;-87
2022/01/13 10:26:55;;;;;;;15.80;6.00;;;2.10;99.90;;;;;;5070243;28;20487;-87
2022/01/13 10:29:36;;;;;;;19.80;6.22;;;2.10;99.90;;;;;;5053970;28;20403;-87
2022/01/13 10:32:04;;;;;;;26.43;6.20;;;2.10;99.90;;;;;;5037387;28;20443;-87
2022/01/13 10:34:34;;;;;;;59.63;8.13;;;2.20;99.90;;;;;;5053670;28;20404;-87
2022/01/13 10:37:07;;;;;;;22.58;6.57;;;2.30;99.90;;;;;;5070459;28;20387;-86
2022/01/13 10:39:52;;;;;;;30.00;6.60;;;2.30;99.90;;;;;;5036992;28;20396;-86
2022/01/13 10:45:14;;;;;;;19.42;6.47;;;2.30;99.90;;;;;;5069936;28;20836;-87
2022/01/13 10:48:05;;;;;;;18.08;6.97;;;2.30;99.90;;;;;;5053765;28;20396;-87
2022/01/13 10:50:42;;;;;;;16.75;6.53;;;2.30;99.90;;;;;;5053310;28;20395;-85
2022/01/13 10:53:16;;;;;;;16.58;7.10;;;2.30;99.90;;;;;;5053354;28;20380;-87
2022/01/13 10:55:47;;;;;;;16.80;7.13;;;2.30;99.90;;;;;;5053430;28;20395;-87
2022/01/13 10:58:17;;;;;;;16.17;7.32;;;2.40;99.90;;;;;;5070269;28;20431;-87
2022/01/13 11:00:49;;;;;;;16.42;7.15;;;2.40;99.90;;;;;;5053242;28;20388;-87
2022/01/13 11:03:22;;;;;;;13.13;6.50;;;2.40;99.90;;;;;;5053330;28;20864;-86
2022/01/13 11:05:51;;;;;;;14.10;6.82;;;2.40;99.90;;;;;;5053421;28;20391;-87
2022/01/13 11:08:41;;;;;;;15.88;6.30;;;2.40;99.90;;;;;;5052966;28;20383;-87
2022/01/13 11:11:26;;;;;;;15.23;6.63;;;2.40;99.90;;;;;;5054365;28;20454;-87
2022/01/13 11:13:58;;;;;;;13.73;6.30;;;2.40;99.90;;;;;;5053242;28;20400;-88
2022/01/13 11:16:26;;;;;;;13.60;6.75;;;2.50;99.90;;;;;;5053043;28;20976;-88
2022/01/13 11:18:54;;;;;;;13.50;6.27;;;2.50;99.90;;;;;;5036943;28;20751;-88
2022/01/13 11:21:22;;;;;;;12.60;6.00;;;2.60;99.90;;;;;;5036716;28;20404;-88
2022/01/13 11:23:50;;;;;;;16.08;6.80;;;2.50;99.90;;;;;;5052885;28;20487;-88
2022/01/13 11:26:18;;;;;;;17.65;7.40;;;2.60;99.90;;;;;;5053148;28;20408;-88
2022/01/13 11:28:46;;;;;;;18.27;8.02;;;2.60;99.90;;;;;;5052716;28;20897;-87
2022/01/13 11:31:14;;;;;;;16.52;6.53;;;2.50;99.90;;;;;;5052755;28;20398;-88
2022/01/13 11:33:42;;;;;;;16.02;6.70;;;2.60;99.90;;;;;;5052517;28;20492;-88
2022/01/13 11:36:12;;;;;;;15.98;8.18;;;2.60;99.90;;;;;;5073387;28;20398;-86
2022/01/13 11:38:54;;;;;;;16.70;7.88;;;2.60;99.90;;;;;;5068861;28;20396;-86
2022/01/13 11:41:21;;;;;;;17.17;6.23;;;2.50;99.90;;;;;;5060271;28;20408;-87
2022/01/13 11:43:50;;;;;;;18.00;7.32;;;2.60;99.90;;;;;;5052472;28;20411;-87
2022/01/13 11:46:23;;;;;;;16.20;7.43;;;2.50;99.90;;;;;;5069063;28;20788;-87
2022/01/13 11:49:15;;;;;;;13.32;6.32;;;2.60;99.90;;;;;;5052722;28;20474;-86
2022/01/13 11:51:56;;;;;;;17.67;6.85;;;2.50;99.90;;;;;;5052457;28;20773;-87
2022/01/13 11:54:31;;;;;;;15.23;6.20;;;2.60;99.90;;;;;;5052193;28;20404;-84
2022/01/13 11:57:22;;;;;;;16.53;6.20;;;2.70;99.90;;;;;;5084644;28;20389;-86
2022/01/13 11:59:55;;;;;;;17.33;7.13;;;2.70;99.90;;;;;;5072189;28;20473;-86
2022/01/13 12:02:39;;;;;;;16.13;6.10;;;2.70;99.90;;;;;;5072240;28;20382;-86
2022/01/13 12:05:14;;;;;;;15.93;6.45;;;2.70;99.90;;;;;;5071910;28;20401;-86
2022/01/13 12:07:54;;;;;;;16.88;6.47;;;2.70;99.90;;;;;;5070861;28;20448;-86
2022/01/13 12:10:25;;;;;;;17.08;5.60;;;2.60;99.90;;;;;;5071182;28;20389;-86
2022/01/13 12:12:53;;;;;;;15.40;5.10;;;2.70;99.90;;;;;;5071084;28;20896;-85
2022/01/13 12:15:25;;;;;;;18.33;5.75;;;2.70;99.90;;;;;;5072656;28;20493;-84
2022/01/13 12:17:57;;;;;;;16.50;5.65;;;2.80;99.90;;;;;;5071364;28;20918;-86
2022/01/13 12:20:52;;;;;;;18.33;5.20;;;2.80;99.90;;;;;;5071364;28;20382;-85
2022/01/13 12:23:39;;;;;;;18.45;5.32;;;2.80;99.90;;;;;;5070936;28;20477;-85
2022/01/13 12:26:32;;;;;;;15.30;5.35;;;2.80;99.90;;;;;;5069687;28;20447;-85
2022/01/13 12:29:19;;;;;;;13.17;4.63;;;2.80;99.90;;;;;;5067579;28;20386;-86
2022/01/13 12:32:01;;;;;;;18.70;5.33;;;2.80;99.90;;;;;;5071059;28;20853;-85
2022/01/13 12:34:28;;;;;;;13.50;4.13;;;2.80;99.90;;;;;;5071055;28;20417;-86
2022/01/13 12:36:57;;;;;;;18.48;4.53;;;2.80;99.90;;;;;;5070408;28;20398;-85
2022/01/13 12:39:25;;;;;;;17.50;5.50;;;2.80;99.90;;;;;;5065102;28;20469;-86
2022/01/13 12:42:01;;;;;;;19.53;5.13;;;2.90;99.90;;;;;;5064331;28;20501;-86
2022/01/13 12:47:17;;;;;;;16.10;4.10;;;2.90;99.90;;;;;;5070849;28;20473;-86
2022/01/13 12:49:50;;;;;;;16.17;4.28;;;2.90;99.90;;;;;;5070833;28;20402;-85
2022/01/13 12:52:23;;;;;;;14.35;4.28;;;2.90;99.90;;;;;;5054285;28;20707;-86
2022/01/13 12:54:51;;;;;;;16.67;5.03;;;2.90;99.90;;;;;;5070924;28;20412;-86
2022/01/13 12:57:22;;;;;;;17.47;4.30;;;2.90;99.90;;;;;;5063741;28;20407;-87
2022/01/13 12:59:57;;;;;;;16.75;4.78;;;2.90;99.90;;;;;;5067278;28;20384;-85
2022/01/13 13:02:24;;;;;;;18.55;4.68;;;2.80;99.90;;;;;;5067370;28;20474;-83
2022/01/13 13:04:52;;;;;;;17.92;4.30;;;2.90;99.90;;;;;;5059649;28;20400;-86
2022/01/13 13:07:20;;;;;;;15.10;4.00;;;2.90;99.90;;;;;;5056733;28;20476;-86
2022/01/13 13:09:48;;;;;;;15.23;4.18;;;2.90;99.90;;;;;;5053951;28;20985;-86
2022/01/13 13:12:25;;;;;;;14.30;3.70;;;3.00;99.90;;;;;;5070500;28;20390;-86
2022/01/13 13:17:46;;;;;;;16.17;3.63;;;2.90;99.90;;;;;;5072040;28;20392;-84
2022/01/13 13:20:30;;;;;;;17.15;4.10;;;2.90;99.90;;;;;;5067505;28;20859;-86
2022/01/13 13:23:00;;;;;;;11.55;3.58;;;2.90;99.90;;;;;;5066996;28;20391;-86
2022/01/13 13:25:32;;;;;;;14.98;4.10;;;2.90;99.90;;;;;;5051779;28;20398;-85
2022/01/13 13:28:25;;;;;;;18.23;3.97;;;3.00;99.90;;;;;;5067105;28;20943;-86
2022/01/13 13:30:58;;;;;;;14.73;4.30;;;3.00;99.90;;;;;;5067109;28;20388;-85
2022/01/13 13:34:09;;;;;;;16.97;3.60;;;3.00;99.90;;;;;;5067321;28;20430;-87